• Join FlightAware (Why Join?)
  • Login
  • US Flag 
07:24PM EDT


 

Airport Tracker/Info


-or-


 

Live Flight TrackerFlight Track Log ✈ AWI3778 ✈ 03-May-2013 ✈ KBTV - KPHL

Flight Track Log - Related Links

Times and Time Zones

All times are in EDT time to prevent confusion due to time zone crossing. See the AWI3778 flight status page for this flight to view local times or setup timezone preferences in your user account.

Time Position Orientation Groundspeed Altitude Reporting Facility
EDT Latitude Longitude Course Direction KTS MPH feet Rate Location/Type
01:50PM 44.1733 -73.2574 196° South  Level FlightAware Approximate
01:50PM 44.4478 -73.3008 198° South 267 307 6,500  Level Boston Center
01:51PM 44.0758 -73.2964 196° South  Level FlightAware Approximate
01:51PM 44.3664 -73.3228 191° South 267 307 9,100  Level Boston Center
01:52PM 43.9783 -73.3354 196° South  Level FlightAware Approximate
01:52PM 44.2847 -73.3478 192° South 290 334 11,100  Level Boston Center
01:53PM 43.8807 -73.3738 195° South  Level FlightAware Approximate
01:53PM 44.1969 -73.3783 194° South 314 361 13,600  Level Boston Center
01:54PM 43.7827 -73.4100 195° South  Level FlightAware Approximate
01:54PM 44.1053 -73.4058 192° South 332 382 15,700  Level Boston Center
01:55PM 43.6846 -73.4462 195° South  Level FlightAware Approximate
01:55PM 44.0092 -73.4331 192° South 350 403 17,600  Level Boston Center
01:56PM 43.9108 -73.4631 192° South 357 411 18,500 1,200 Climbing Boston Center
01:57PM 43.8044 -73.4958 193° South 379 436 20,000 1,500 Climbing Boston Center
01:58PM 43.6997 -73.5256 192° South 385 443 21,500 1,440 Climbing Boston Center
01:59PM 43.5933 -73.5553 191° South 395 455 22,900 1,200 Climbing Boston Center
02:00PM 43.4806 -73.5875 192° South 395 455 24,000 1,020 Climbing Boston Center
02:01PM 43.3697 -73.6225 193° South 401 461 25,000 960 Climbing Boston Center
02:02PM 43.2589 -73.6544 192° South 411 473 26,000 480 Climbing Boston Center
02:03PM 43.1417 -73.6892 192° South 416 479 26,000  Level Boston Center
02:04PM 43.0247 -73.7239 192° South 421 484 26,000  Level Boston Center
02:05PM 42.9347 -73.7503 192° South 421 484 26,000  Level Boston Center
02:06PM 42.7989 -73.7897 192° South 421 484 26,000  Level Boston Center
02:07PM 42.7122 -73.8783 217° Southwest 400 460 26,000  Level Boston Center
02:08PM 42.6522 -74.0039 237° Southwest 381 438 26,000  Level Boston Center
02:10PM 42.5383 -74.2378 237° Southwest 410 472 26,000  Level Boston Center
02:11PM 42.4650 -74.3906 237° Southwest 410 472 26,000  Level Boston Center
02:12PM 42.4003 -74.5150 235° Southwest 410 472 26,000 -420 Level Boston Center
02:13PM 42.3372 -74.6422 236° Southwest 410 472 25,200 -1,200 Descending Boston Center
02:14PM 42.2700 -74.7744 236° Southwest 415 478 23,600 -1,500 Descending Boston Center
02:15PM 42.1569 -74.9783 233° Southwest 408 470 21,100 -1,440 Descending New York Center
02:16PM 42.0625 -75.0533 211° Southwest 394 453 19,600 -1,080 Descending New York Center
02:17PM 41.9683 -75.1308 211° Southwest 406 467 19,000 -360 Descending New York Center
02:18PM 41.8758 -75.2083 212° Southwest 401 461 18,900 -900 Descending New York Center
02:19PM 41.7769 -75.2881 211° Southwest 392 451 17,300 -2,040 Descending New York Center
02:20PM 41.6867 -75.3622 212° Southwest 392 451 14,900 -1,920 Descending New York Center
02:21PM 41.6008 -75.4314 211° Southwest 380 437 13,400 -1,440 Descending New York Center
02:22PM 41.5256 -75.4925 211° Southwest 365 420 12,000 -720 Descending New York Center
02:23PM 41.4353 -75.5636 211° Southwest 353 406 12,000  Level New York Center
02:24PM 41.3600 -75.6219 210° Southwest 353 406 12,000  Level New York Center
02:25PM 41.2656 -75.6869 207° Southwest 353 406 12,000  Level New York Center
02:26PM 41.1717 -75.6883 181° South 336 387 12,000  Level New York Center
02:27PM 41.0883 -75.6878 180° South 336 387 12,000  Level New York Center
02:28PM 40.9842 -75.6886 180° South 342 394 12,000  Level New York Center
02:29PM 40.8906 -75.6872 179° South 342 394 12,000  Level New York Center
02:30PM 40.8053 -75.6867 180° South 347 399 12,000  Level New York Center
02:31PM 40.7050 -75.6875 180° South 347 399 12,000  Level New York Center
02:32PM 40.6136 -75.6836 178° South 347 399 12,000 -480 Level New York Center
02:33PM 40.5475 -75.6161 142° Southeast 307 353 11,100 -960 Descending New York Center
02:34PM 40.5053 -75.5314 123° Southeast 300 345 10,100 -600 Descending New York Center
02:35PM 40.4525 -75.4431 128° Southeast 295 339 10,000 -720 Descending New York Center
02:36PM 40.3836 -75.3947 152° Southeast 276 318 8,700 -1,380 Descending New York Center
02:37PM 40.3164 -75.3550 156° South 276 318 7,300 -1,140 Descending New York Center
02:38PM 40.2481 -75.3394 170° South 271 312 6,400 -660 Descending New York Center
02:39PM 40.1614 -75.3744 197° South 276 318 6,000 -240 Descending New York Center
02:40PM 40.0953 -75.4081 201° Southwest 288 331 6,000  Level New York Center
02:41PM 40.0222 -75.4089 181° South 259 298 6,000  Level New York Center
02:42PM 39.9708 -75.3917 166° South 228 262 6,000  Level New York Center
02:43PM 39.9253 -75.4375 218° Southwest 193 222 6,000  Level New York Center
02:44PM 39.9056 -75.5172 252° West 190 219 6,000 -540 Level New York Center
02:45PM 39.8878 -75.5919 253° West 224 258 5,000 -540 Descending New York Center
02:46PM 39.8522 -75.6436 228° Southwest 219 252 5,000 -540 Level New York Center
02:47PM 39.8136 -75.6247 159° South 152 175 4,000 -1,080 Descending New York Center
02:48PM 39.8000 -75.5667 107° East 181 208 3,100 -600 Descending Philadelphia TRACON
02:49PM 39.8167 -75.5000 72° East 175 201 3,000 -240 Descending Philadelphia TRACON
02:50PM 39.8333 -75.4333 72° East 180 207 2,600 -420 Descending Philadelphia TRACON